Anderson, South Carolina
Current Conditions -  °F | °C
As of 5:56 PM on Wednesday 22 Oct 2014 (Local Time) from KAND Reporting Station
Clear Clear  
Wind Chill: 18°   Ceiling: Unl
Heat Index: 18°   Visibility: 10mi
Dew Point:   Wind: 9mph
Humidity: 34%   Direction: 50°NE
Pressure: 30.05"   Gusts: NA
Location:  34.5°N, 82.65°W
Report Text: KAND 222156Z AUTO 05008KT 10SM CLR 18/02 A3005 RMK AO2 SLP174 T01830022
Loading
Personal Weather Stations






























Interactive Weather Map
Tropical Storm Tracking
New forecast layout! Learn more

10-Day Weather Forecast

Advertisements
Track Severe Weather on mobile